Flugplatz Nannhausen

Für EDRN sind keine METAR/TAF Berichte vorhanden.
Es werden die Flugwettermeldungen vom Flugplatz Frankfurt-Hahn in 15 km Entfernung angezeigt.

Bericht für EDFH

vom 22.03. um 21:20 UTC

Wind 5 kt aus 230°

Sichtweite 10 km oder mehr

gute Sicht, keine Wolken < 5000 ft, keine CB, keine Wettererscheinungen (CAVOK)

Temperatur 11.0°C

Taupunkt -1.0°C

Luftfeuchtigkeit 43%

Luftdruck 1027 hPa

EDFH 222120Z 23005KT CAVOK 11/M01 Q1027

Prognose für EDFH

vom 22.03. um 17:00 UTC

Zwischen 18:00 UTC und 10:00 UTC

Wind 4 kt aus 170°

Sichtweite 10 km oder mehr

keine signifikanten Wettererscheinungen

keine Wolken


Am 23.03. zwischen 10:00 und 12:00 UTC übergehend zu

Wind 8 kt aus 20°

Sichtweite 10 km oder mehr

keine signifikanten Wettererscheinungen

keine Wolken

TAF EDFH 221700Z 2218/2318 17004KT CAVOK BECMG 2310/2312 02008KT
Impressum